Saint Leo, Florida
Current Conditions -  °F | °C
As of 10:15 AM on Tuesday 21 Oct 2014 (Local Time) from KZPH Reporting Station
NA  
Wind Chill: 70°   Ceiling: NA
Heat Index: 70°   Visibility: NA
Dew Point: 68°   Wind: 0mph
Humidity: 94%   Direction: NA
Pressure: 30"   Gusts: NA
Location:  28.34°N, 82.26°W
Report Text: KZPH 211415Z AUTO 00000KT 21/20 A3000 RMK AO2 PWINO
Loading
Personal Weather Stations






























Interactive Weather Map
Tropical Storm Tracking
New forecast layout! Learn more

10-Day Weather Forecast

Advertisements
Track Severe Weather on mobile